Flight Track Log - Related Links

Times and Time Zones

All times are in EDT time to prevent confusion due to time zone crossing. See the N175HQ flight status page for this flight to view local times or setup timezone preferences in your user account.

Time Position Orientation Groundspeed Altitude Reporting Facility
EDT Latitude Longitude Course Direction KTS MPH feet Rate Location/Type
Fri 09:10:21 AM 43.1794 -89.3658 270° West 169 194 2,800  Level Minneapolis Center
Fri 09:11:26 AM 43.1883 -89.4475 279° West 209 241 5,000 2,381 Climbing Chicago Center
Fri 09:12:27 AM 43.1881 -89.5442 270° West 248 285 7,800 2,634 Climbing Chicago Center
Fri 09:13:29 AM 43.1869 -89.6481 269° West 269 310 10,400 2,226 Climbing Chicago Center
Fri 09:14:31 AM 43.1847 -89.7617 269° West 291 335 12,400 2,293 Climbing Chicago Center
Fri 09:15:00 AM 43.1334 -89.9997 270° West  Level FlightAware Approximate
Fri 09:15:32 AM 43.1836 -89.8800 269° West 306 352 15,100  Level Chicago Center
Fri 09:16:34 AM 43.1819 -89.9994 269° West 312 359 17,300 2,323 Climbing Chicago Center
Fri 09:17:36 AM 43.1806 -90.1408 269° West 322 371 19,900 2,244 Climbing Chicago Center
Fri 09:18:37 AM 43.1786 -90.2658 269° West 327 376 21,900 1,854 Climbing Chicago Center
Fri 09:19:39 AM 43.1767 -90.3833 269° West 331 381 23,700 1,742 Climbing Chicago Center
Fri 09:20:41 AM 43.1739 -90.5103 268° West 337 388 25,500 1,756 Climbing Chicago Center
Fri 09:21:42 AM 43.1722 -90.6428 269° West 349 402 27,300 1,500 Climbing Chicago Center
Fri 09:22:37 AM 43.1700 -90.7769 269° West 354 407 28,400 1,241 Climbing Minneapolis Center
Fri 09:23:38 AM 43.1683 -90.9169 269° West 366 421 29,700 1,073 Climbing Minneapolis Center
Fri 09:24:40 AM 43.1650 -91.0608 268° West 378 435 30,600 1,122 Climbing Minneapolis Center
Fri 09:25:41 AM 43.1617 -91.2083 268° West 388 447 32,000 1,463 Climbing Minneapolis Center
Fri 09:26:43 AM 43.1586 -91.3811 269° West 385 443 33,600 1,024 Climbing Minneapolis Center
Fri 09:27:44 AM 43.1550 -91.5244 268° West 383 441 34,100 492 Climbing Minneapolis Center
Fri 09:28:45 AM 43.1514 -91.6439 268° West 392 451 34,600 780 Climbing Minneapolis Center
Fri 09:29:47 AM 43.1456 -91.8236 268° West 400 460 35,700 677 Climbing Minneapolis Center
Fri 09:30:49 AM 43.1414 -91.9717 268° West 398 458 36,000 146 Climbing Minneapolis Center
Fri 09:31:50 AM 43.1367 -92.1447 268° West 389 448 36,000  Level Minneapolis Center
Fri 09:32:52 AM 43.1331 -92.2903 268° West 387 445 36,000  Level Minneapolis Center
Fri 09:33:53 AM 43.1278 -92.4378 267° West 391 450 36,000  Level Minneapolis Center
Fri 09:34:55 AM 43.1222 -92.5869 267° West 397 457 36,000  Level Minneapolis Center
Fri 09:35:56 AM 43.1172 -92.7325 267° West 390 449 36,000  Level Minneapolis Center
Fri 09:36:58 AM 43.1122 -92.8811 267° West 391 450 36,000  Level Minneapolis Center
Fri 09:37:59 AM 43.1053 -93.0647 267° West 404 465 36,000  Level Minneapolis Center
Fri 09:39:01 AM 43.0989 -93.2169 267° West 404 465 36,000  Level Minneapolis Center
Fri 09:40:02 AM 43.0914 -93.3706 266° West 408 470 36,000  Level Minneapolis Center
Fri 09:41:04 AM 43.0767 -93.5214 262° West 405 466 36,000  Level Minneapolis Center
Fri 09:42:05 AM 43.0631 -93.6725 263° West 403 464 36,000  Level Minneapolis Center
Fri 09:43:07 AM 43.0489 -93.8250 263° West 405 466 36,000  Level Minneapolis Center
Fri 09:44:08 AM 43.0333 -93.9775 262° West 407 468 36,000  Level Minneapolis Center
Fri 09:45:09 AM 43.0156 -94.1592 262° West 407 468 36,000  Level Minneapolis Center
Fri 09:46:11 AM 42.9986 -94.3108 261° West 406 467 36,000  Level Minneapolis Center
Fri 09:47:12 AM 42.9808 -94.4639 261° West 409 471 36,000  Level Minneapolis Center
Fri 09:48:14 AM 42.9675 -94.6150 263° West 408 470 36,000  Level Minneapolis Center
Fri 09:49:15 AM 42.9542 -94.7633 263° West 401 461 36,000  Level Minneapolis Center
Fri 09:50:17 AM 42.9375 -94.9153 262° West 402 463 36,000  Level Minneapolis Center
Fri 09:51:18 AM 42.9178 -95.0975 262° West 406 467 36,000  Level Minneapolis Center
Fri 09:52:19 AM 42.9017 -95.2500 262° West 406 467 36,000  Level Minneapolis Center
Fri 09:53:21 AM 42.8850 -95.3992 261° West 402 463 36,000  Level Minneapolis Center
Fri 09:54:22 AM 42.8683 -95.5481 261° West 399 459 36,000  Level Minneapolis Center
Fri 09:55:24 AM 42.8511 -95.6986 261° West 401 461 36,000  Level Minneapolis Center
Fri 09:56:25 AM 42.8342 -95.8481 261° West 399 459 36,000  Level Minneapolis Center
Fri 09:57:26 AM 42.8169 -95.9967 261° West 399 459 36,000  Level Minneapolis Center
Fri 09:58:28 AM 42.7994 -96.1464 261° West 398 458 36,000  Level Minneapolis Center
Fri 09:59:29 AM 42.7817 -96.2975 261° West 403 464 36,000  Level Minneapolis Center
Fri 10:00:31 AM 42.7628 -96.4508 261° West 409 471 36,000  Level Minneapolis Center
Fri 10:01:32 AM 42.7411 -96.6336 261° West 408 470 36,000  Level Minneapolis Center
Fri 10:02:33 AM 42.7219 -96.7864 260° West 410 472 36,000  Level Minneapolis Center
Fri 10:03:35 AM 42.7031 -96.9394 261° West 411 473 36,000  Level Minneapolis Center
Fri 10:04:36 AM 42.6853 -97.0831 260° West 405 466 36,000  Level Minneapolis Center
Fri 10:05:38 AM 42.6658 -97.2356 260° West 409 471 36,000  Level Minneapolis Center
Fri 10:06:39 AM 42.6461 -97.3881 260° West 411 473 36,000  Level Minneapolis Center
Fri 10:07:40 AM 42.6261 -97.5433 260° West 416 479 36,000  Level Minneapolis Center
Fri 10:08:42 AM 42.6056 -97.6969 260° West 415 478 36,000  Level Minneapolis Center
Fri 10:09:43 AM 42.5806 -97.8803 260° West 414 476 36,000  Level Minneapolis Center
Fri 10:10:45 AM 42.5597 -98.0311 259° West 411 473 36,000  Level Minneapolis Center
Fri 10:11:46 AM 42.5397 -98.1819 260° West 409 471 36,000  Level Minneapolis Center
Fri 10:12:48 AM 42.5194 -98.3322 260° West 406 467 36,000  Level Minneapolis Center
Fri 10:13:49 AM 42.4997 -98.4836 260° West 407 468 36,000  Level Minneapolis Center
Fri 10:14:50 AM 42.4825 -98.6028 259° West 406 467 36,000  Level Minneapolis Center
Fri 10:15:52 AM 42.4331 -98.7736 249° West 414 476 36,000  Level Minneapolis Center
Fri 10:16:53 AM 42.3722 -98.9072 238° Southwest 416 479 36,000  Level Minneapolis Center
Fri 10:17:55 AM 42.2994 -99.0706 239° Southwest 422 486 36,000  Level Minneapolis Center
Fri 10:18:56 AM 42.2383 -99.2036 238° Southwest 420 483 36,000  Level Minneapolis Center
Fri 10:19:58 AM 42.1806 -99.3339 239° Southwest 412 474 36,000  Level Minneapolis Center
Fri 10:20:35 AM 42.1453 -99.4078 237° Southwest 400 460 36,000  Level Denver Center
Fri 10:21:37 AM 42.0872 -99.5353 238° Southwest 401 461 36,000  Level Denver Center
Fri 10:22:39 AM 42.0294 -99.6625 239° Southwest 398 458 36,000  Level Denver Center
Fri 10:23:40 AM 41.9642 -99.8058 239° Southwest 399 459 36,000  Level Denver Center
Fri 10:24:42 AM 41.9081 -99.9244 238° Southwest 395 455 36,000  Level Denver Center
Fri 10:25:44 AM 41.8428 -100.0656 238° Southwest 398 458 36,000  Level Denver Center
Fri 10:26:45 AM 41.7864 -100.1869 238° Southwest 402 463 36,000  Level Denver Center
Fri 10:27:47 AM 41.7319 -100.3364 244° Southwest 401 461 36,000  Level Denver Center
Fri 10:28:49 AM 41.6867 -100.4656 245° Southwest 403 464 36,000  Level Denver Center
Fri 10:29:51 AM 41.6403 -100.5944 244° Southwest 402 463 36,000  Level Denver Center
Fri 10:30:52 AM 41.5875 -100.7450 245° Southwest 403 464 36,000  Level Denver Center
Fri 10:31:54 AM 41.5419 -100.8711 244° Southwest 396 456 36,000  Level Denver Center
Fri 10:32:56 AM 41.4892 -101.0172 244° Southwest 394 453 36,000  Level Denver Center
Fri 10:33:58 AM 41.4447 -101.1436 245° Southwest 394 453 36,000  Level Denver Center
Fri 10:35:00 AM 41.3914 -101.2883 244° Southwest 392 451 36,000  Level Denver Center
Fri 10:36:02 AM 41.3458 -101.4133 244° Southwest 395 455 36,000  Level Denver Center
Fri 10:37:04 AM 41.2939 -101.5578 244° Southwest 390 449 36,000  Level Denver Center
Fri 10:38:06 AM 41.2475 -101.6825 244° Southwest 393 452 36,000  Level Denver Center
Fri 10:39:07 AM 41.1950 -101.8261 244° Southwest 389 448 36,000  Level Denver Center
Fri 10:40:09 AM 41.1500 -101.9464 244° Southwest 382 440 36,000  Level Denver Center
Fri 10:41:11 AM 41.0989 -102.0853 244° Southwest 378 435 36,000  Level Denver Center
Fri 10:42:13 AM 41.0528 -102.2042 243° Southwest 378 435 36,000  Level Denver Center
Fri 10:43:15 AM 40.9997 -102.3431 243° Southwest 378 435 36,000 -97 Level Denver Center
Fri 10:44:17 AM 40.9556 -102.4611 244° Southwest 376 433 35,800 -629 Descending Denver Center
Fri 10:45:19 AM 40.9036 -102.5956 243° Southwest 369 425 34,700 -1,016 Descending Denver Center
Fri 10:46:21 AM 40.8625 -102.7081 244° Southwest 357 411 33,700 -919 Descending Denver Center
Fri 10:47:23 AM 40.8200 -102.8206 244° Southwest 358 412 32,800 -1,016 Descending Denver Center
Fri 10:48:25 AM 40.7694 -102.9531 243° Southwest 363 418 31,600 -1,065 Descending Denver Center
Fri 10:49:27 AM 40.7200 -103.0794 243° Southwest 369 425 30,600 -968 Descending Denver Center
Fri 10:50:29 AM 40.6736 -103.1994 243° Southwest 367 422 29,600 -968 Descending Denver Center
Fri 10:51:31 AM 40.6275 -103.3172 243° Southwest 360 414 28,600 -968 Descending Denver Center
Fri 10:52:33 AM 40.5814 -103.4342 243° Southwest 357 411 27,600 -1,016 Descending Denver Center
Fri 10:53:35 AM 40.5364 -103.5483 243° Southwest 350 403 26,500 -1,597 Descending Denver Center
Fri 10:54:37 AM 40.4853 -103.6794 243° Southwest 344 396 24,300 -1,872 Descending Denver Center
Fri 10:55:40 AM 40.4439 -103.7861 243° Southwest 348 400 22,600 -1,728 Descending Denver Center
Fri 10:56:42 AM 40.3989 -103.9003 243° Southwest 325 374 20,700 -1,742 Descending Denver Center
Fri 10:57:44 AM 40.3558 -104.0044 242° Southwest 326 375 19,000 -1,588 Descending Denver Center
Fri 10:58:58 AM 40.3128 -104.1136 243° Southwest 312 359 17,100 -1,721 Descending Denver Center
Fri 11:00:00 AM 40.2628 -104.2356 242° Southwest 311 358 15,100 -1,742 Descending Denver Center
Fri 11:01:02 AM 40.2567 -104.3433 266° West 301 346 13,500 -1,500 Descending Denver Center
Fri 11:02:04 AM 40.2219 -104.4486 247° West 291 335 12,000 -1,161 Descending Denver Center
Fri 11:03:06 AM 40.1925 -104.5367 246° West 265 305 11,100 -968 Descending Denver Center
Fri 11:04:08 AM 40.1314 -104.5861 212° Southwest 243 280 10,000 -1,145 Descending Denver Center
Fri 11:04:56 AM 40.0833 -104.6167 206° Southwest 240 276 9,000 -1,235 Descending Denver TRACON
Fri 11:05:50 AM 40.0333 -104.6500 207° Southwest 222 255 7,900 -1,091 Descending Denver TRACON
Fri 11:06:13 AM 40.0142 -104.6647 210° Southwest 219 252 7,600 -776 Descending Denver Center
Fri 11:07:15 AM 39.9667 -104.6856 199° South 185 213 6,800 -823 Descending Denver Center
Fri 11:08:17 AM 39.9225 -104.6867 181° South 160 184 5,900 -677 Descending Denver Center
Fri 11:09:19 AM 39.8808 -104.6869 180° South 140 161 5,400 -484 Descending Denver Center
Fri 11:11:00 AM 39.8617 -104.6732 190° South  Level Estimated
Fri 11:18:00 AM 39.8617 -104.6732 190° South  Level Estimated
Fri 11:19:00 AM 39.8617 -104.6732 190° South  Level Estimated

Login

Don't have an account? Register now (free) for customized features, flight alerts, and more!